Time;durP1;ratioP1;P1;durP2;ratioP2;P2;SDS_P1;SDS_P2;PMS_P1;PMS_P2;Temp;Humidity;BMP_temperature;BMP_pressure;BME280_temperature;BME280_humidity;BME280_pressure;Samples;Min_cycle;Max_cycle;Signal;HPM_P1;HPM_P2
2021/07/17 00:02:19;;;;;;;17.77;14.40;;;22.90;99.90;;;;;;6158533;23;20780;-42
2021/07/17 00:04:46;;;;;;;15.17;13.67;;;22.90;99.90;;;;;;6158422;23;20704;-42
2021/07/17 00:07:13;;;;;;;20.37;13.73;;;22.90;99.90;;;;;;6158797;23;20424;-44
2021/07/17 00:09:41;;;;;;;18.90;13.40;;;22.90;99.90;;;;;;6158859;23;20401;-48
2021/07/17 00:12:09;;;;;;;14.77;13.20;;;22.90;99.90;;;;;;6158286;23;20417;-42
2021/07/17 00:14:35;;;;;;;13.67;12.27;;;22.80;99.90;;;;;;6158448;23;20472;-42
2021/07/17 00:17:03;;;;;;;17.07;13.63;;;22.90;99.90;;;;;;6158005;23;20537;-46
2021/07/17 00:19:30;;;;;;;17.17;12.67;;;22.90;99.90;;;;;;6157558;23;20402;-42
2021/07/17 00:21:57;;;;;;;13.60;12.07;;;22.90;99.90;;;;;;6158100;23;20409;-43
2021/07/17 00:24:23;;;;;;;12.67;11.37;;;22.90;99.90;;;;;;6158325;23;20413;-42
2021/07/17 00:26:55;;;;;;;14.60;12.30;;;22.90;99.90;;;;;;6158273;23;20401;-44
2021/07/17 00:29:21;;;;;;;14.70;13.07;;;22.90;99.90;;;;;;6158403;23;20741;-49
2021/07/17 00:31:48;;;;;;;14.53;12.70;;;22.90;99.90;;;;;;6158276;23;20409;-42
2021/07/17 00:34:15;;;;;;;15.63;12.60;;;22.90;99.90;;;;;;6158309;23;20433;-42
2021/07/17 00:36:41;;;;;;;14.77;11.70;;;22.90;99.90;;;;;;6157830;23;20445;-49
2021/07/17 00:39:08;;;;;;;13.63;12.00;;;22.90;99.90;;;;;;6158202;23;20405;-42
2021/07/17 00:41:35;;;;;;;14.60;12.00;;;22.90;99.90;;;;;;6158160;23;20773;-45
2021/07/17 00:44:03;;;;;;;16.40;12.77;;;22.90;99.90;;;;;;6157827;23;20406;-44
2021/07/17 00:46:31;;;;;;;13.20;11.80;;;22.90;99.90;;;;;;6158172;23;20480;-47
2021/07/17 00:48:58;;;;;;;14.83;13.00;;;22.90;99.90;;;;;;6157643;23;20422;-44
2021/07/17 00:51:26;;;;;;;15.53;12.30;;;22.90;99.90;;;;;;6157714;23;20472;-44
2021/07/17 00:53:52;;;;;;;14.20;12.20;;;22.90;99.90;;;;;;6158011;23;20444;-45
2021/07/17 00:56:20;;;;;;;17.80;11.77;;;22.90;99.90;;;;;;6157369;23;20515;-48
2021/07/17 00:58:49;;;;;;;17.27;11.67;;;22.90;99.90;;;;;;6157812;23;20461;-48
2021/07/17 01:01:17;;;;;;;12.50;10.50;;;22.90;99.90;;;;;;6157950;23;20417;-45
2021/07/17 01:03:44;;;;;;;17.30;10.80;;;22.90;99.90;;;;;;6158176;23;20436;-45
2021/07/17 01:06:10;;;;;;;13.60;11.53;;;22.90;99.90;;;;;;6158322;23;20418;-46
2021/07/17 01:08:37;;;;;;;16.87;11.93;;;22.90;99.90;;;;;;6158513;23;20472;-46
2021/07/17 01:11:04;;;;;;;16.73;12.37;;;22.90;99.90;;;;;;6158204;23;20465;-50
2021/07/17 01:13:31;;;;;;;15.27;12.10;;;22.80;99.90;;;;;;6158042;23;20409;-46
2021/07/17 01:15:58;;;;;;;14.93;10.50;;;22.80;99.90;;;;;;6158123;23;20468;-50
2021/07/17 01:18:26;;;;;;;15.40;12.20;;;22.80;99.90;;;;;;6158186;23;20683;-45
2021/07/17 01:20:54;;;;;;;12.77;10.00;;;22.80;99.90;;;;;;6157611;23;20405;-44
2021/07/17 01:23:22;;;;;;;11.43;10.23;;;22.80;99.90;;;;;;6158253;23;20775;-43
2021/07/17 01:25:56;;;;;;;15.40;10.93;;;22.80;99.90;;;;;;6157867;23;20406;-41
2021/07/17 01:28:22;;;;;;;16.00;11.47;;;22.80;99.90;;;;;;6158079;23;20409;-45
2021/07/17 01:30:51;;;;;;;15.93;10.80;;;22.80;99.90;;;;;;6158242;23;20436;-42
2021/07/17 01:33:18;;;;;;;16.60;11.10;;;22.80;99.90;;;;;;6157711;23;20405;-45
2021/07/17 01:35:44;;;;;;;16.90;12.27;;;22.80;99.90;;;;;;6157665;23;20410;-44
2021/07/17 01:38:11;;;;;;;11.47;10.00;;;22.80;99.90;;;;;;6158071;23;20438;-46
2021/07/17 01:40:39;;;;;;;11.43;10.23;;;22.80;99.90;;;;;;6157619;23;20430;-45
2021/07/17 01:43:06;;;;;;;12.03;10.80;;;22.80;99.90;;;;;;6157445;23;20920;-45
2021/07/17 01:45:35;;;;;;;13.13;10.50;;;22.80;99.90;;;;;;6157369;23;20409;-46
2021/07/17 01:48:02;;;;;;;14.70;10.50;;;22.80;99.90;;;;;;6157026;23;20421;-42
2021/07/17 01:50:29;;;;;;;11.40;9.93;;;22.80;99.90;;;;;;6157260;23;20436;-48
2021/07/17 01:52:56;;;;;;;19.67;10.57;;;22.80;99.90;;;;;;6156949;23;20414;-45
2021/07/17 01:55:23;;;;;;;11.47;10.10;;;22.80;99.90;;;;;;6157373;23;20428;-45
2021/07/17 01:57:51;;;;;;;15.10;10.17;;;22.70;99.90;;;;;;6156439;23;20449;-42
2021/07/17 02:00:20;;;;;;;11.63;10.37;;;22.70;99.90;;;;;;6157650;23;20434;-42
2021/07/17 02:02:48;;;;;;;11.73;9.90;;;22.70;99.90;;;;;;6158074;23;20414;-44
2021/07/17 02:05:16;;;;;;;11.60;10.40;;;22.70;99.90;;;;;;6158371;23;20410;-42
2021/07/17 02:07:43;;;;;;;19.20;10.93;;;22.70;99.90;;;;;;6158102;23;20871;-43
2021/07/17 02:10:12;;;;;;;12.13;10.37;;;22.70;99.90;;;;;;6158065;23;20448;-41
2021/07/17 02:12:40;;;;;;;12.33;10.10;;;22.70;99.90;;;;;;6158051;23;20414;-51
2021/07/17 02:15:09;;;;;;;12.27;9.10;;;22.70;99.90;;;;;;6157992;23;20414;-45
2021/07/17 02:17:36;;;;;;;10.50;9.43;;;22.70;99.90;;;;;;6158141;23;21011;-45
2021/07/17 02:20:08;;;;;;;15.23;12.80;;;22.70;99.90;;;;;;6157836;23;20488;-44
2021/07/17 02:22:35;;;;;;;13.23;10.83;;;22.70;99.90;;;;;;6158084;23;20389;-46
2021/07/17 02:25:02;;;;;;;13.87;10.00;;;22.60;99.90;;;;;;6157576;23;20869;-45
2021/07/17 02:27:28;;;;;;;10.33;9.23;;;22.60;99.90;;;;;;6157819;23;20418;-51
2021/07/17 02:29:55;;;;;;;11.40;10.30;;;22.60;99.90;;;;;;6157445;23;20409;-51
2021/07/17 02:32:23;;;;;;;10.00;9.00;;;22.60;99.90;;;;;;6157564;23;20406;-43
2021/07/17 02:34:50;;;;;;;16.00;9.50;;;22.60;99.90;;;;;;6157254;23;20868;-44
2021/07/17 02:37:18;;;;;;;16.53;11.10;;;22.50;99.90;;;;;;6157874;23;20450;-42
2021/07/17 02:39:46;;;;;;;17.80;9.80;;;22.50;99.90;;;;;;6157239;23;20410;-42
2021/07/17 02:42:13;;;;;;;10.97;9.67;;;22.40;99.90;;;;;;6157864;23;20873;-47
2021/07/17 02:44:40;;;;;;;10.73;8.60;;;22.30;99.90;;;;;;6157633;23;20480;-42
2021/07/17 02:47:07;;;;;;;11.70;10.50;;;22.30;99.90;;;;;;6158010;23;20474;-42
2021/07/17 02:49:35;;;;;;;10.37;9.27;;;22.30;99.90;;;;;;6157803;23;20459;-43
2021/07/17 02:52:04;;;;;;;10.43;8.70;;;22.20;99.90;;;;;;6157270;23;20425;-44
2021/07/17 02:54:31;;;;;;;10.17;9.17;;;22.20;99.90;;;;;;6157295;23;20464;-45
2021/07/17 02:56:58;;;;;;;11.90;8.67;;;22.20;99.90;;;;;;6157198;23;20454;-42
2021/07/17 02:59:24;;;;;;;11.93;9.30;;;22.30;99.90;;;;;;6157044;23;20417;-50
2021/07/17 03:01:51;;;;;;;10.53;9.53;;;22.30;99.90;;;;;;6157352;23;20390;-45
2021/07/17 03:04:18;;;;;;;14.33;8.87;;;22.30;99.90;;;;;;6157517;23;20932;-47
2021/07/17 03:06:46;;;;;;;10.20;8.53;;;22.30;99.90;;;;;;6157581;23;20421;-42
2021/07/17 03:09:13;;;;;;;10.23;9.03;;;22.30;99.90;;;;;;6157525;23;20500;-48
2021/07/17 03:11:39;;;;;;;11.23;9.40;;;22.30;99.90;;;;;;6157556;23;20468;-41
2021/07/17 03:14:06;;;;;;;12.63;8.73;;;22.20;99.90;;;;;;6157150;23;20460;-45
2021/07/17 03:16:33;;;;;;;11.13;8.87;;;22.20;99.90;;;;;;6157402;23;20415;-44
2021/07/17 03:19:00;;;;;;;10.73;8.60;;;22.30;99.90;;;;;;6157896;23;20432;-49
2021/07/17 03:21:27;;;;;;;14.67;8.50;;;22.30;99.90;;;;;;6157327;23;20468;-48
2021/07/17 03:23:55;;;;;;;8.67;7.37;;;22.20;99.90;;;;;;6156937;23;20397;-46
2021/07/17 03:26:25;;;;;;;14.03;9.20;;;22.20;99.90;;;;;;6157228;23;20422;-45
2021/07/17 03:28:51;;;;;;;12.23;8.80;;;22.20;99.90;;;;;;6156969;23;20915;-43
2021/07/17 03:31:26;;;;;;;9.50;8.60;;;22.30;99.90;;;;;;6157241;23;20460;-49
2021/07/17 03:33:53;;;;;;;8.33;7.50;;;22.30;99.90;;;;;;6157203;23;20437;-48
2021/07/17 03:36:19;;;;;;;13.40;8.60;;;22.30;99.90;;;;;;6156792;23;20683;-46
2021/07/17 03:38:46;;;;;;;9.27;8.13;;;22.30;99.90;;;;;;6156692;23;20438;-44
2021/07/17 03:41:14;;;;;;;8.43;7.60;;;22.30;99.90;;;;;;6157153;23;20405;-49
2021/07/17 03:43:44;;;;;;;11.37;8.93;;;22.30;99.90;;;;;;6157148;23;20700;-49
2021/07/17 03:46:10;;;;;;;9.63;7.80;;;22.30;99.90;;;;;;6156727;23;20406;-49
2021/07/17 03:48:37;;;;;;;10.13;8.20;;;22.30;99.90;;;;;;6157187;23;20461;-48
2021/07/17 03:51:04;;;;;;;11.73;8.03;;;22.30;99.90;;;;;;6157070;23;20424;-47
2021/07/17 03:53:31;;;;;;;9.43;7.37;;;22.30;99.90;;;;;;6156812;23;20504;-46
2021/07/17 03:56:01;;;;;;;12.60;8.30;;;22.30;99.90;;;;;;6156930;23;20484;-43
2021/07/17 03:58:29;;;;;;;11.33;9.00;;;22.40;99.90;;;;;;6157174;23;20484;-52
2021/07/17 04:00:56;;;;;;;9.20;8.10;;;22.30;99.90;;;;;;6156749;23;20402;-50
2021/07/17 04:03:26;;;;;;;11.13;8.07;;;22.30;99.90;;;;;;6156529;23;20425;-47
2021/07/17 04:05:53;;;;;;;11.33;8.53;;;22.40;99.90;;;;;;6157184;23;20390;-48
2021/07/17 04:08:22;;;;;;;8.70;6.47;;;22.40;99.90;;;;;;6156766;23;20410;-44
2021/07/17 04:10:49;;;;;;;11.73;9.73;;;22.40;99.90;;;;;;6157060;23;20410;-44
2021/07/17 04:13:16;;;;;;;8.37;7.57;;;22.40;99.90;;;;;;6158708;23;20427;-49
2021/07/17 04:15:44;;;;;;;14.03;8.40;;;22.40;99.90;;;;;;6158891;23;20681;-50
2021/07/17 04:18:11;;;;;;;13.10;7.33;;;22.50;99.90;;;;;;6158725;23;20799;-46
2021/07/17 04:20:37;;;;;;;10.27;7.33;;;22.50;99.90;;;;;;6158457;23;20417;-47
2021/07/17 04:23:05;;;;;;;8.73;7.83;;;22.60;99.90;;;;;;6158812;23;20406;-47
2021/07/17 04:25:32;;;;;;;11.10;8.70;;;22.60;99.90;;;;;;6158761;23;20417;-45
2021/07/17 04:27:58;;;;;;;10.83;7.23;;;22.70;99.90;;;;;;6158835;23;20440;-44
2021/07/17 04:30:25;;;;;;;9.03;7.80;;;22.80;99.90;;;;;;6158733;23;20410;-46
2021/07/17 04:32:54;;;;;;;8.50;7.60;;;22.80;99.90;;;;;;6158759;23;20418;-48
2021/07/17 04:35:20;;;;;;;8.93;7.00;;;22.80;99.90;;;;;;6158707;23;20504;-46
2021/07/17 04:37:48;;;;;;;12.47;7.90;;;22.80;99.90;;;;;;6158603;23;20849;-45
2021/07/17 04:40:16;;;;;;;10.03;7.67;;;22.80;99.90;;;;;;6158727;23;20410;-45
2021/07/17 04:42:42;;;;;;;10.40;7.57;;;22.90;99.90;;;;;;6158666;23;20422;-47
2021/07/17 04:45:10;;;;;;;10.03;8.53;;;22.90;99.90;;;;;;6158637;23;20414;-45
2021/07/17 04:47:39;;;;;;;10.70;7.63;;;22.90;99.90;;;;;;6158736;23;20402;-49
2021/07/17 04:50:08;;;;;;;12.50;9.30;;;22.90;99.90;;;;;;6158570;23;20421;-47
2021/07/17 04:52:35;;;;;;;9.23;8.00;;;22.80;99.90;;;;;;6158613;23;20402;-46
2021/07/17 04:55:05;;;;;;;9.90;8.03;;;22.80;99.90;;;;;;6158175;23;20467;-49
2021/07/17 04:57:32;;;;;;;12.17;7.90;;;22.80;99.90;;;;;;6157811;23;20446;-46
2021/07/17 04:59:58;;;;;;;9.60;8.50;;;22.80;99.90;;;;;;6158482;23;20414;-51
2021/07/17 05:02:25;;;;;;;14.00;9.50;;;22.80;99.90;;;;;;6158001;23;20417;-46
2021/07/17 05:04:52;;;;;;;13.10;9.43;;;22.80;99.90;;;;;;6158391;23;20468;-48
2021/07/17 05:07:20;;;;;;;13.17;9.67;;;22.60;99.90;;;;;;6158359;23;20500;-46
2021/07/17 05:09:46;;;;;;;11.30;9.10;;;22.70;99.90;;;;;;6158450;23;20858;-44
2021/07/17 05:12:13;;;;;;;11.30;8.73;;;22.80;99.90;;;;;;6158380;23;20416;-48
2021/07/17 05:14:42;;;;;;;17.63;8.90;;;22.80;99.90;;;;;;6157806;23;20418;-44
2021/07/17 05:17:09;;;;;;;14.63;11.17;;;22.80;99.90;;;;;;6157843;23;20837;-48
2021/07/17 05:19:36;;;;;;;9.63;8.00;;;22.80;99.90;;;;;;6158222;23;20416;-50
2021/07/17 05:22:03;;;;;;;10.40;9.07;;;22.80;99.90;;;;;;6158418;23;20753;-45
2021/07/17 05:24:31;;;;;;;17.10;9.77;;;22.80;99.90;;;;;;6157555;23;20484;-44
2021/07/17 05:26:58;;;;;;;11.30;9.20;;;22.80;99.90;;;;;;6158260;23;20413;-49
2021/07/17 05:29:25;;;;;;;12.33;9.50;;;22.80;99.90;;;;;;6158292;23;20436;-45
2021/07/17 05:31:52;;;;;;;11.43;8.57;;;22.80;99.90;;;;;;6158186;23;20406;-49
2021/07/17 05:34:18;;;;;;;11.80;9.73;;;22.80;99.90;;;;;;6158130;23;20492;-49
2021/07/17 05:36:45;;;;;;;15.13;9.53;;;22.80;99.90;;;;;;6158142;23;20461;-43
2021/07/17 05:39:12;;;;;;;11.20;10.10;;;22.80;99.90;;;;;;6158052;23;20441;-43
2021/07/17 05:41:40;;;;;;;16.60;10.40;;;22.90;99.90;;;;;;6158100;23;20492;-48
2021/07/17 05:44:06;;;;;;;13.67;9.10;;;22.90;99.90;;;;;;6158073;23;20468;-46
2021/07/17 05:46:33;;;;;;;12.70;10.27;;;23.00;99.90;;;;;;6157652;23;20406;-50
2021/07/17 05:49:00;;;;;;;11.87;9.13;;;23.10;99.90;;;;;;6157929;23;20476;-50
2021/07/17 05:51:27;;;;;;;13.63;10.83;;;23.20;99.90;;;;;;6157874;23;20410;-46
2021/07/17 05:53:53;;;;;;;13.80;11.17;;;23.30;99.90;;;;;;6157987;23;20471;-47
2021/07/17 05:56:20;;;;;;;15.93;10.30;;;23.30;99.90;;;;;;6157230;23;20771;-48
2021/07/17 05:58:51;;;;;;;15.10;12.07;;;23.40;99.90;;;;;;6157324;23;20966;-46
2021/07/17 06:01:18;;;;;;;13.40;11.40;;;23.50;99.90;;;;;;6158081;23;20386;-48
2021/07/17 06:03:46;;;;;;;15.30;12.37;;;23.60;99.90;;;;;;6157816;23;20757;-49
2021/07/17 06:06:13;;;;;;;13.57;12.17;;;23.60;99.90;;;;;;6157980;23;20851;-49
2021/07/17 06:08:43;;;;;;;14.47;12.87;;;23.70;99.90;;;;;;6157893;23;20468;-43
2021/07/17 06:11:09;;;;;;;15.70;11.40;;;23.70;99.90;;;;;;6157745;23;20413;-50
2021/07/17 06:13:36;;;;;;;12.50;11.20;;;23.60;99.90;;;;;;6157399;23;20472;-43
2021/07/17 06:16:04;;;;;;;15.20;11.67;;;23.60;99.90;;;;;;6157708;23;20781;-46
2021/07/17 06:18:31;;;;;;;14.20;12.50;;;23.70;99.90;;;;;;6157667;23;20449;-44
2021/07/17 06:20:58;;;;;;;15.03;12.90;;;23.70;99.90;;;;;;6157377;23;20414;-46
2021/07/17 06:23:25;;;;;;;14.10;12.60;;;23.70;99.90;;;;;;6157733;23;20413;-47
2021/07/17 06:25:53;;;;;;;14.20;12.67;;;23.80;99.90;;;;;;6157667;23;20405;-44
2021/07/17 06:28:19;;;;;;;14.67;12.03;;;23.80;99.90;;;;;;6157168;23;20406;-51
2021/07/17 06:30:46;;;;;;;15.90;12.50;;;23.70;99.90;;;;;;6157285;23;20465;-47
2021/07/17 06:33:14;;;;;;;17.30;15.20;;;23.70;99.90;;;;;;6157161;23;20422;-49
2021/07/17 06:35:41;;;;;;;13.23;11.93;;;23.70;99.90;;;;;;6156939;23;20406;-44
2021/07/17 06:38:07;;;;;;;17.20;13.43;;;23.60;99.90;;;;;;6157546;23;20703;-47
2021/07/17 06:40:34;;;;;;;15.17;13.43;;;23.60;99.90;;;;;;6157465;23;20423;-46
2021/07/17 06:43:01;;;;;;;19.67;14.20;;;23.60;99.90;;;;;;6157488;23;20468;-48
2021/07/17 06:45:27;;;;;;;18.43;13.70;;;23.60;99.90;;;;;;6157045;23;20464;-44
2021/07/17 06:47:54;;;;;;;15.90;14.13;;;23.60;99.90;;;;;;6157104;23;20402;-48
2021/07/17 06:50:22;;;;;;;19.40;16.80;;;23.60;99.90;;;;;;6157439;23;20457;-47
2021/07/17 06:52:50;;;;;;;23.10;15.53;;;23.60;99.90;;;;;;6157461;23;20416;-43
2021/07/17 06:55:17;;;;;;;19.27;14.97;;;23.60;99.90;;;;;;6157016;23;20766;-49
2021/07/17 06:57:45;;;;;;;17.70;15.90;;;23.70;99.90;;;;;;6156868;23;20477;-54
2021/07/17 07:00:13;;;;;;;17.27;14.70;;;23.70;99.90;;;;;;6157049;23;20410;-49
2021/07/17 07:02:40;;;;;;;16.83;15.13;;;23.70;99.90;;;;;;6157072;23;20440;-43
2021/07/17 07:05:09;;;;;;;19.87;15.13;;;23.80;99.90;;;;;;6157157;23;20416;-44
2021/07/17 07:07:37;;;;;;;18.90;15.80;;;23.80;99.90;;;;;;6157291;23;20421;-44
2021/07/17 07:10:07;;;;;;;17.53;15.63;;;24.00;99.90;;;;;;6157464;23;20476;-44
2021/07/17 07:12:36;;;;;;;15.50;13.83;;;24.00;99.90;;;;;;6157489;23;20468;-48
2021/07/17 07:15:05;;;;;;;24.43;16.90;;;24.00;99.90;;;;;;6156876;23;20422;-45
2021/07/17 07:17:31;;;;;;;18.20;16.30;;;24.00;99.90;;;;;;6157254;23;20480;-49
2021/07/17 07:19:58;;;;;;;21.33;15.87;;;24.00;99.90;;;;;;6157208;23;20445;-45
2021/07/17 07:22:24;;;;;;;17.83;15.90;;;24.00;99.90;;;;;;6156684;23;20433;-45
2021/07/17 07:24:52;;;;;;;17.73;15.77;;;23.90;99.90;;;;;;6157229;23;20406;-48
2021/07/17 07:27:19;;;;;;;18.10;15.30;;;24.00;99.90;;;;;;6157142;23;20492;-50
2021/07/17 07:29:46;;;;;;;17.47;15.50;;;23.90;99.90;;;;;;6157160;23;20406;-47
2021/07/17 07:32:13;;;;;;;20.07;16.07;;;24.00;99.90;;;;;;6156787;23;20429;-49
2021/07/17 07:34:40;;;;;;;16.77;14.60;;;24.10;99.90;;;;;;6157200;23;20437;-47
2021/07/17 07:37:06;;;;;;;20.20;16.77;;;24.20;99.90;;;;;;6156647;23;20448;-43
2021/07/17 07:39:33;;;;;;;15.80;14.20;;;24.30;99.90;;;;;;6156790;23;20437;-50
2021/07/17 07:42:01;;;;;;;17.20;13.80;;;24.50;99.90;;;;;;6157091;23;20418;-50
2021/07/17 07:44:28;;;;;;;16.73;15.03;;;24.60;99.90;;;;;;6156844;23;20417;-47
2021/07/17 07:46:55;;;;;;;17.03;14.27;;;24.80;99.90;;;;;;6157366;23;20409;-48
2021/07/17 07:49:22;;;;;;;15.77;14.10;;;24.90;99.90;;;;;;6158646;23;20408;-48
2021/07/17 07:51:48;;;;;;;16.03;14.20;;;24.90;99.90;;;;;;6158608;23;20409;-43
2021/07/17 07:54:19;;;;;;;19.03;13.80;;;24.90;99.90;;;;;;6158641;23;20417;-47
2021/07/17 07:56:45;;;;;;;15.13;12.67;;;24.90;99.90;;;;;;6158514;23;20437;-47
2021/07/17 07:59:13;;;;;;;15.30;13.70;;;24.90;99.90;;;;;;6158481;23;20456;-45
2021/07/17 08:01:40;;;;;;;15.47;13.87;;;24.90;99.90;;;;;;6158353;23;20741;-43
2021/07/17 08:04:07;;;;;;;14.83;12.70;;;24.90;99.90;;;;;;6158715;23;20402;-49
2021/07/17 08:06:33;;;;;;;15.00;13.53;;;24.80;99.90;;;;;;6158581;23;20414;-48
2021/07/17 08:09:01;;;;;;;14.63;13.13;;;24.90;99.90;;;;;;6158862;23;20406;-46
2021/07/17 08:11:30;;;;;;;16.83;14.67;;;24.90;99.90;;;;;;6158579;23;20433;-45
2021/07/17 08:13:57;;;;;;;21.43;14.13;;;25.00;99.90;;;;;;6158797;23;20410;-45
2021/07/17 08:16:25;;;;;;;16.67;13.57;;;25.00;99.90;;;;;;6158328;23;20417;-49
2021/07/17 08:18:51;;;;;;;15.20;12.77;;;25.00;99.90;;;;;;6158684;23;20578;-50
2021/07/17 08:21:18;;;;;;;15.83;14.33;;;25.10;99.90;;;;;;6159303;23;20405;-51
2021/07/17 08:23:45;;;;;;;15.40;14.00;;;25.20;99.90;;;;;;6158737;23;20721;-46
2021/07/17 08:26:12;;;;;;;17.57;14.10;;;25.30;99.90;;;;;;6158397;23;20872;-43
2021/07/17 08:28:39;;;;;;;16.87;13.67;;;25.30;99.90;;;;;;6158143;23;20418;-49
2021/07/17 08:31:06;;;;;;;15.50;13.97;;;25.30;99.90;;;;;;6158245;23;20468;-50
2021/07/17 08:33:34;;;;;;;14.60;13.10;;;25.50;99.90;;;;;;6158595;23;20488;-47
2021/07/17 08:36:01;;;;;;;21.10;12.80;;;25.60;99.90;;;;;;6158151;23;20440;-43
2021/07/17 08:38:27;;;;;;;14.30;12.90;;;25.70;99.90;;;;;;6158408;23;20437;-48
2021/07/17 08:40:56;;;;;;;19.33;13.93;;;25.70;99.90;;;;;;6158563;23;20406;-48
2021/07/17 08:43:23;;;;;;;17.63;13.10;;;25.70;99.90;;;;;;6157799;23;20422;-46
2021/07/17 08:45:51;;;;;;;16.50;13.80;;;25.70;99.90;;;;;;6158407;23;20414;-46
2021/07/17 08:48:19;;;;;;;14.37;12.87;;;25.60;99.90;;;;;;6158460;23;20493;-48
2021/07/17 08:50:48;;;;;;;13.73;12.33;;;25.60;99.90;;;;;;6158341;23;20497;-50
2021/07/17 08:53:17;;;;;;;15.33;13.50;;;25.60;99.90;;;;;;6157920;23;20890;-50
2021/07/17 08:55:44;;;;;;;13.70;12.30;;;25.50;99.90;;;;;;6156963;23;20903;-49
2021/07/17 08:58:10;;;;;;;16.20;12.90;;;25.50;99.90;;;;;;6157865;23;20406;-46
2021/07/17 09:00:39;;;;;;;15.93;13.00;;;25.40;99.90;;;;;;6157291;23;20936;-46
2021/07/17 09:03:09;;;;;;;15.13;12.93;;;25.30;99.90;;;;;;6155925;23;20895;-46
2021/07/17 09:05:42;;;;;;;13.33;12.00;;;25.30;99.90;;;;;;6157118;23;20402;-48
2021/07/17 09:08:11;;;;;;;22.37;13.87;;;25.30;99.90;;;;;;6157967;23;20722;-49
2021/07/17 09:10:39;;;;;;;13.57;12.13;;;25.20;99.90;;;;;;6157938;23;20405;-48
2021/07/17 09:13:12;;;;;;;14.50;13.00;;;25.20;99.90;;;;;;6157895;23;20472;-46
2021/07/17 09:15:41;;;;;;;15.57;13.93;;;25.20;99.90;;;;;;6157489;23;20413;-46
2021/07/17 09:18:08;;;;;;;14.73;12.90;;;25.10;99.90;;;;;;6157561;23;20421;-46
2021/07/17 09:20:35;;;;;;;21.23;14.57;;;25.10;99.90;;;;;;6157334;23;20437;-44
2021/07/17 09:23:05;;;;;;;15.03;13.30;;;25.10;99.90;;;;;;6157576;23;20873;-48
2021/07/17 09:25:39;;;;;;;16.83;12.90;;;25.20;99.90;;;;;;6158208;23;20433;-48
2021/07/17 09:28:17;;;;;;;14.33;12.90;;;25.30;99.90;;;;;;6158183;23;20401;-48
2021/07/17 09:30:44;;;;;;;15.60;13.53;;;25.30;99.90;;;;;;6157534;23;20401;-48
2021/07/17 09:33:11;;;;;;;15.03;13.43;;;25.40;99.90;;;;;;6157427;23;20414;-44
2021/07/17 09:35:40;;;;;;;14.83;13.23;;;25.50;99.90;;;;;;6157411;23;20421;-45
2021/07/17 09:38:08;;;;;;;18.33;16.13;;;25.50;99.90;;;;;;6157154;23;20875;-48
2021/07/17 09:40:52;;;;;;;18.00;14.50;;;25.50;99.90;;;;;;6156976;23;20969;-46
2021/07/17 09:43:30;;;;;;;15.23;13.63;;;25.60;99.90;;;;;;6157395;23;20744;-46
2021/07/17 09:45:57;;;;;;;16.97;14.77;;;25.60;99.90;;;;;;6156889;23;20406;-49
2021/07/17 09:48:29;;;;;;;14.90;13.17;;;25.60;99.90;;;;;;6156838;23;20402;-49
2021/07/17 09:50:58;;;;;;;15.90;14.20;;;25.60;99.90;;;;;;6156548;23;20426;-44
2021/07/17 09:53:42;;;;;;;14.27;12.77;;;25.60;99.90;;;;;;6156921;23;20398;-51
2021/07/17 10:31:22;;;;;;;14.83;13.27;;;28.00;99.90;;;;;;6138344;23;20484;-45
2021/07/17 10:33:49;;;;;;;15.93;14.30;;;28.30;99.90;;;;;;6187141;23;20728;-46
2021/07/17 10:36:17;;;;;;;16.93;13.43;;;28.30;99.90;;;;;;6186868;23;20409;-48
2021/07/17 10:38:45;;;;;;;15.20;13.50;;;28.20;99.90;;;;;;6186899;23;20404;-51
2021/07/17 10:41:15;;;;;;;17.00;13.87;;;28.10;99.90;;;;;;6186999;23;20420;-52
2021/07/17 10:43:42;;;;;;;14.50;12.63;;;27.90;99.90;;;;;;6185907;23;20412;-50
2021/07/17 10:46:29;;;;;;;16.40;14.60;;;27.80;99.90;;;;;;6186941;23;20401;-45
2021/07/17 10:48:58;;;;;;;14.90;13.50;;;27.80;99.90;;;;;;6186899;23;20408;-52
2021/07/17 10:51:32;;;;;;;16.00;14.27;;;27.90;99.90;;;;;;6186407;23;20455;-50
2021/07/17 10:54:00;;;;;;;15.20;13.40;;;28.00;99.90;;;;;;6186297;23;20466;-50
2021/07/17 10:56:44;;;;;;;14.97;13.10;;;28.30;99.90;;;;;;6186150;23;20409;-49
2021/07/17 10:59:45;;;;;;;15.97;14.33;;;28.50;99.90;;;;;;6187061;23;20876;-49
2021/07/17 11:02:16;;;;;;;15.57;14.03;;;28.50;99.90;;;;;;6186814;23;20788;-50
2021/07/17 11:04:59;;;;;;;16.10;13.00;;;28.40;99.90;;;;;;6189307;23;20439;-47
2021/07/17 11:07:38;;;;;;;14.70;13.30;;;28.50;99.90;;;;;;6195995;23;20412;-48
2021/07/17 11:10:14;;;;;;;16.93;13.30;;;28.70;99.90;;;;;;6186435;23;20377;-46
2021/07/17 11:12:58;;;;;;;14.33;12.93;;;28.90;99.90;;;;;;6185955;23;20397;-48
2021/07/17 11:15:38;;;;;;;14.97;12.83;;;28.90;99.90;;;;;;6186460;23;20385;-45
2021/07/17 11:18:26;;;;;;;15.27;13.77;;;29.10;99.90;;;;;;6186348;23;20423;-45
2021/07/17 11:21:02;;;;;;;16.33;14.80;;;29.10;99.90;;;;;;6190017;23;20528;-44
2021/07/17 11:23:34;;;;;;;18.83;13.87;;;29.00;99.90;;;;;;6214228;23;20384;-46
2021/07/17 11:26:04;;;;;;;14.17;12.40;;;28.90;99.90;;;;;;6213954;23;20470;-43
2021/07/17 11:28:57;;;;;;;13.97;12.50;;;28.90;99.90;;;;;;6213195;23;20453;-48
2021/07/17 11:31:52;;;;;;;17.20;13.03;;;29.20;99.90;;;;;;6213876;23;20417;-43
2021/07/17 11:34:41;;;;;;;14.97;13.40;;;29.50;99.90;;;;;;6213724;23;20411;-47
2021/07/17 11:37:21;;;;;;;14.33;12.90;;;29.70;99.90;;;;;;6214087;23;20389;-44
2021/07/17 11:39:55;;;;;;;16.10;14.50;;;29.90;99.90;;;;;;6213476;23;20431;-48
2021/07/17 11:42:22;;;;;;;16.20;13.13;;;29.80;99.90;;;;;;6214477;23;20437;-46
2021/07/17 11:44:51;;;;;;;13.27;12.03;;;29.80;99.90;;;;;;6214293;23;20472;-46
2021/07/17 11:47:19;;;;;;;14.33;12.80;;;29.80;99.90;;;;;;6214252;23;20405;-49
2021/07/17 11:49:52;;;;;;;13.80;12.50;;;29.80;99.90;;;;;;6214257;23;20401;-45
2021/07/17 11:52:21;;;;;;;14.50;13.00;;;29.70;99.90;;;;;;6214983;23;20385;-47
2021/07/17 11:54:52;;;;;;;14.00;12.67;;;29.50;99.90;;;;;;6214422;23;20401;-46
2021/07/17 11:57:20;;;;;;;13.53;12.13;;;29.40;99.90;;;;;;6213791;23;20361;-48
2021/07/17 11:59:55;;;;;;;13.57;12.27;;;29.50;99.90;;;;;;6214388;23;20471;-47
2021/07/17 12:02:25;;;;;;;15.50;12.20;;;29.70;99.90;;;;;;6214274;23;20391;-49
2021/07/17 12:04:55;;;;;;;14.33;12.73;;;29.70;99.90;;;;;;6213822;23;20427;-51
2021/07/17 12:07:23;;;;;;;13.83;12.43;;;29.80;99.90;;;;;;6189575;23;20396;-46
2021/07/17 12:09:52;;;;;;;13.17;11.87;;;29.80;99.90;;;;;;6188270;23;20401;-48
2021/07/17 12:12:27;;;;;;;15.07;13.53;;;29.60;99.90;;;;;;6188251;23;20709;-50
2021/07/17 12:15:01;;;;;;;14.47;13.07;;;29.50;99.90;;;;;;6188278;23;20397;-48
2021/07/17 12:17:29;;;;;;;14.17;12.73;;;29.60;99.90;;;;;;6188003;23;20400;-49
2021/07/17 12:20:13;;;;;;;12.73;11.53;;;29.80;99.90;;;;;;6188251;23;20468;-50
2021/07/17 12:22:53;;;;;;;12.17;10.97;;;29.90;99.90;;;;;;6188333;23;20455;-48
2021/07/17 12:25:22;;;;;;;12.23;11.03;;;29.90;99.90;;;;;;6188211;23;20759;-48
2021/07/17 12:28:01;;;;;;;12.37;11.17;;;29.90;99.90;;;;;;6188138;23;20404;-56
2021/07/17 12:30:30;;;;;;;14.70;13.10;;;30.00;99.90;;;;;;6188254;23;20443;-47
2021/07/17 12:33:31;;;;;;;18.00;15.27;;;30.10;99.90;;;;;;6187335;23;20794;-50
2021/07/17 12:36:18;;;;;;;21.70;18.70;;;30.30;99.90;;;;;;6188174;23;20411;-47
2021/07/17 12:38:48;;;;;;;14.10;12.57;;;30.40;99.90;;;;;;6187931;23;20451;-47
2021/07/17 12:41:18;;;;;;;14.23;12.93;;;30.50;99.90;;;;;;6187956;23;20479;-46
2021/07/17 12:43:46;;;;;;;12.90;11.53;;;30.40;99.90;;;;;;6188000;23;20396;-50
2021/07/17 12:46:16;;;;;;;12.87;11.57;;;30.00;99.90;;;;;;6187856;23;20486;-49
2021/07/17 12:48:49;;;;;;;13.43;12.17;;;29.90;99.90;;;;;;6188007;23;20424;-53
2021/07/17 12:51:20;;;;;;;12.63;11.30;;;29.90;99.90;;;;;;6187508;23;20487;-51
2021/07/17 12:53:48;;;;;;;13.83;12.43;;;29.90;99.90;;;;;;6188009;23;20768;-49
2021/07/17 12:56:17;;;;;;;12.67;11.40;;;29.80;99.90;;;;;;6187921;23;20409;-48
2021/07/17 12:58:44;;;;;;;12.40;11.23;;;29.80;99.90;;;;;;6187987;23;20528;-46
2021/07/17 13:01:12;;;;;;;13.37;12.10;;;29.90;99.90;;;;;;6187853;23;20441;-44
2021/07/17 13:03:39;;;;;;;14.03;12.63;;;30.00;99.90;;;;;;6187785;23;20408;-48
2021/07/17 13:06:14;;;;;;;14.73;12.40;;;30.00;99.90;;;;;;6187711;23;20416;-52
2021/07/17 13:08:42;;;;;;;13.00;11.80;;;30.00;99.90;;;;;;6187882;23;20384;-52
2021/07/17 13:11:16;;;;;;;17.80;12.73;;;30.10;99.90;;;;;;6187668;23;20397;-51
2021/07/17 13:13:49;;;;;;;12.17;10.97;;;30.10;99.90;;;;;;6187642;23;20392;-48
2021/07/17 13:16:25;;;;;;;12.63;11.43;;;30.20;99.90;;;;;;6187385;23;20395;-52